createdAt,value
2019-05-16T00:00:59.331Z,64.87
2019-05-16T00:02:01.225Z,64.87
2019-05-16T00:02:59.319Z,64.67
2019-05-16T00:03:59.297Z,63.65
2019-05-16T00:04:59.328Z,63.47
2019-05-16T00:05:59.275Z,64.29
2019-05-16T00:06:59.275Z,64.70
2019-05-16T00:07:59.573Z,65.21
2019-05-16T00:08:59.241Z,64.80
2019-05-16T00:09:59.234Z,65.21
2019-05-16T00:10:59.227Z,65.42
2019-05-16T00:11:59.210Z,65.11
2019-05-16T00:12:59.785Z,65.01
2019-05-16T00:13:59.212Z,65.31
2019-05-16T00:14:59.182Z,65.21
2019-05-16T00:15:59.175Z,65.42
2019-05-16T00:16:59.155Z,64.90
2019-05-16T00:17:59.147Z,64.98
2019-05-16T00:18:59.144Z,65.01
2019-05-16T00:19:59.121Z,64.90
2019-05-16T00:20:59.110Z,65.11
2019-05-16T00:21:59.097Z,65.83
2019-05-16T00:22:59.176Z,63.78
2019-05-16T00:23:59.119Z,64.70
2019-05-16T00:24:59.064Z,64.90
2019-05-16T00:25:59.051Z,65.21
2019-05-16T00:26:59.055Z,65.39
2019-05-16T00:27:59.035Z,65.49
2019-05-16T00:28:59.084Z,65.59
2019-05-16T00:29:59.021Z,65.21
2019-05-16T00:30:59.354Z,65.42
2019-05-16T00:31:58.986Z,65.49
2019-05-16T00:32:59.062Z,65.72
2019-05-16T00:33:58.983Z,65.72
2019-05-16T00:34:58.952Z,65.83
2019-05-16T00:36:05.169Z,65.83
2019-05-16T00:36:59.949Z,65.80
2019-05-16T00:37:59.247Z,65.42
2019-05-16T00:38:58.907Z,65.18
2019-05-16T00:39:58.984Z,65.08
2019-05-16T00:40:59.177Z,65.01
2019-05-16T00:41:58.876Z,65.39
2019-05-16T00:42:59.155Z,65.21
2019-05-16T00:43:58.850Z,65.31
2019-05-16T00:44:58.840Z,65.62
2019-05-16T00:45:59.133Z,65.83
2019-05-16T00:46:58.820Z,65.62
2019-05-16T00:47:58.812Z,66.13
2019-05-16T00:48:59.046Z,65.62
2019-05-16T00:49:58.788Z,65.52
2019-05-16T00:50:58.786Z,66.24
2019-05-16T00:51:58.772Z,65.52
2019-05-16T00:52:59.214Z,66.75
2019-05-16T00:53:58.912Z,66.44
2019-05-16T00:54:58.751Z,66.64
2019-05-16T00:55:58.719Z,67.70
2019-05-16T00:56:58.725Z,67.05
2019-05-16T00:57:58.695Z,67.05
2019-05-16T00:58:58.838Z,66.54
2019-05-16T00:59:59.181Z,67.05
2019-05-16T01:00:59.276Z,67.29
2019-05-16T01:01:58.885Z,67.77
2019-05-16T01:02:58.657Z,67.97
2019-05-16T01:03:58.694Z,67.29
2019-05-16T01:04:59.029Z,67.57
2019-05-16T01:05:58.608Z,67.40
2019-05-16T01:07:01.782Z,67.60
2019-05-16T01:07:58.601Z,67.70
2019-05-16T01:08:58.577Z,67.70
2019-05-16T01:09:58.561Z,67.90
2019-05-16T01:10:58.797Z,68.62
2019-05-16T01:11:58.543Z,67.90
2019-05-16T01:12:58.574Z,67.90
2019-05-16T01:13:58.521Z,67.49
2019-05-16T01:14:58.595Z,68.11
2019-05-16T01:15:58.509Z,68.01
2019-05-16T01:16:58.483Z,67.60
2019-05-16T01:17:58.814Z,68.01
2019-05-16T01:18:59.003Z,67.49
2019-05-16T01:19:58.456Z,67.36
2019-05-16T01:20:58.740Z,67.19
2019-05-16T01:21:59.114Z,68.01
2019-05-16T01:22:58.423Z,67.70
2019-05-16T01:23:58.653Z,67.40
2019-05-16T01:24:58.618Z,67.70
2019-05-16T01:25:58.977Z,67.36
2019-05-16T01:26:58.378Z,68.11
2019-05-16T01:27:58.421Z,67.40
2019-05-16T01:28:58.368Z,67.60
2019-05-16T01:29:58.490Z,68.11
2019-05-16T01:30:58.369Z,67.49
2019-05-16T01:31:59.070Z,66.64
2019-05-16T01:32:58.363Z,66.24
2019-05-16T01:33:58.460Z,66.13
2019-05-16T01:34:58.909Z,66.13
2019-05-16T01:35:58.655Z,66.27
2019-05-16T01:36:58.949Z,66.85
2019-05-16T01:37:58.288Z,65.93
2019-05-16T01:38:58.530Z,65.96
2019-05-16T01:39:58.718Z,65.83
2019-05-16T01:40:58.532Z,65.75
2019-05-16T01:41:58.778Z,65.65
2019-05-16T01:42:58.199Z,65.45
2019-05-16T01:43:58.573Z,65.52
2019-05-16T01:44:58.179Z,65.24
2019-05-16T01:45:58.173Z,64.42
2019-05-16T01:46:58.700Z,63.88
2019-05-16T01:47:58.687Z,63.81
2019-05-16T01:48:58.155Z,64.01
2019-05-16T01:49:58.195Z,64.01
2019-05-16T01:50:58.483Z,63.81
2019-05-16T01:51:58.113Z,62.48
2019-05-16T01:52:58.088Z,62.68
2019-05-16T01:53:58.119Z,62.88
2019-05-16T01:54:58.674Z,63.20
2019-05-16T01:55:58.166Z,62.99
2019-05-16T01:56:59.523Z,62.68
2019-05-16T01:57:58.473Z,63.09
2019-05-16T01:58:58.332Z,62.68
2019-05-16T01:59:59.008Z,61.83
2019-05-16T02:01:05.424Z,62.04
2019-05-16T02:02:00.877Z,62.55
2019-05-16T02:02:58.025Z,62.37
2019-05-16T02:03:58.673Z,61.96
2019-05-16T02:04:59.108Z,61.25
2019-05-16T02:05:58.518Z,61.45
2019-05-16T02:06:58.442Z,62.68
2019-05-16T02:07:58.402Z,62.48
2019-05-16T02:08:58.031Z,61.86
2019-05-16T02:09:58.326Z,61.55
2019-05-16T02:10:58.505Z,61.55
2019-05-16T02:11:58.885Z,61.66
2019-05-16T02:12:58.200Z,61.04
2019-05-16T02:13:58.541Z,61.25
2019-05-16T02:14:58.723Z,61.86
2019-05-16T02:15:59.222Z,59.92
2019-05-16T02:16:58.170Z,59.71
2019-05-16T02:17:58.645Z,61.66
2019-05-16T02:18:58.892Z,61.55
2019-05-16T02:19:57.884Z,61.66
2019-05-16T02:21:00.950Z,61.76
2019-05-16T02:21:59.649Z,61.25
2019-05-16T02:22:58.544Z,61.25
2019-05-16T02:23:58.552Z,61.66
2019-05-16T02:24:58.484Z,62.68
2019-05-16T02:25:58.086Z,62.37
2019-05-16T02:26:58.919Z,62.37
2019-05-16T02:27:58.938Z,62.99
2019-05-16T02:28:57.694Z,62.78
2019-05-16T02:29:59.884Z,62.88
2019-05-16T02:31:00.910Z,61.86
2019-05-16T02:31:57.687Z,63.20
2019-05-16T02:33:00.810Z,62.78
2019-05-16T02:33:57.656Z,62.07
2019-05-16T02:35:00.899Z,62.27
2019-05-16T02:35:57.616Z,61.04
2019-05-16T02:37:17.990Z,60.84
2019-05-16T02:38:01.051Z,61.35
2019-05-16T02:38:57.599Z,59.30
2019-05-16T02:40:00.956Z,58.58
2019-05-16T02:40:57.561Z,59.23
2019-05-16T02:42:00.805Z,58.10
2019-05-16T02:43:01.103Z,58.72
2019-05-16T02:43:57.547Z,59.02
2019-05-16T02:44:57.531Z,59.30
2019-05-16T02:46:00.818Z,56.87
2019-05-16T02:46:57.508Z,56.67
2019-05-16T02:47:57.485Z,56.35
2019-05-16T02:49:00.586Z,56.26
2019-05-16T02:49:57.506Z,56.46
2019-05-16T02:50:57.452Z,56.13
2019-05-16T02:51:57.447Z,55.64
2019-05-16T02:53:01.140Z,54.31
2019-05-16T02:53:57.419Z,55.51
2019-05-16T02:55:00.587Z,54.10
2019-05-16T02:55:57.413Z,54.51
2019-05-16T02:56:57.408Z,53.87
2019-05-16T02:58:00.406Z,54.49
2019-05-16T02:58:57.370Z,53.90
2019-05-16T02:59:57.357Z,54.51
2019-05-16T03:00:57.392Z,55.23
2019-05-16T03:02:00.604Z,53.69
2019-05-16T03:02:57.328Z,53.39
2019-05-16T03:03:57.324Z,52.13
2019-05-16T03:05:00.633Z,52.23
2019-05-16T03:05:57.304Z,52.23
2019-05-16T03:07:00.384Z,51.62
2019-05-16T03:07:57.276Z,51.64
2019-05-16T03:08:57.255Z,52.75
2019-05-16T03:09:57.243Z,54.00
2019-05-16T03:10:57.238Z,52.75
2019-05-16T03:11:57.240Z,53.36
2019-05-16T03:13:00.570Z,53.36
2019-05-16T03:13:57.234Z,52.44
2019-05-16T03:14:57.189Z,52.54
2019-05-16T03:16:00.464Z,51.21
2019-05-16T03:16:57.166Z,52.13
2019-05-16T03:18:00.326Z,52.23
2019-05-16T03:19:01.011Z,52.85
2019-05-16T03:19:57.138Z,51.34
2019-05-16T03:21:00.394Z,51.13
2019-05-16T03:21:57.123Z,51.13
2019-05-16T03:22:57.100Z,52.05
2019-05-16T03:23:57.092Z,52.36
2019-05-16T03:24:57.111Z,52.47
2019-05-16T03:25:57.067Z,52.67
2019-05-16T03:26:57.069Z,52.67
2019-05-16T03:27:57.055Z,53.18
2019-05-16T03:28:57.047Z,52.77
2019-05-16T03:29:57.026Z,52.15
2019-05-16T03:30:57.018Z,51.34
2019-05-16T03:31:57.029Z,51.87
2019-05-16T03:32:57.012Z,52.49
2019-05-16T03:34:05.393Z,51.36
2019-05-16T03:35:04.149Z,52.18
2019-05-16T03:36:03.978Z,53.10
2019-05-16T03:37:03.415Z,53.61
2019-05-16T03:38:01.476Z,52.80
2019-05-16T03:39:01.089Z,53.31
2019-05-16T03:39:56.917Z,52.80
2019-05-16T03:40:56.901Z,53.92
2019-05-16T03:41:56.892Z,54.33
2019-05-16T03:42:56.901Z,52.90
2019-05-16T03:43:56.886Z,52.28
2019-05-16T03:44:56.873Z,53.00
2019-05-16T03:45:56.848Z,51.98
2019-05-16T03:46:56.840Z,52.80
2019-05-16T03:47:56.829Z,54.44
2019-05-16T03:48:56.838Z,54.53
2019-05-16T03:49:56.818Z,54.53
2019-05-16T03:50:56.795Z,54.44
2019-05-16T03:51:56.796Z,54.53
2019-05-16T03:52:56.774Z,54.53
2019-05-16T03:53:56.765Z,53.69
2019-05-16T03:54:56.772Z,52.39
2019-05-16T03:55:56.747Z,52.69
2019-05-16T03:56:56.726Z,52.67
2019-05-16T03:57:56.725Z,54.02
2019-05-16T03:58:56.709Z,54.51
2019-05-16T03:59:56.696Z,53.69
2019-05-16T04:00:56.728Z,52.97
2019-05-16T04:01:56.677Z,53.59
2019-05-16T04:02:56.660Z,53.61
2019-05-16T04:03:56.660Z,53.61
2019-05-16T04:04:56.639Z,54.13
2019-05-16T04:05:56.625Z,54.53
2019-05-16T04:06:56.663Z,54.21
2019-05-16T04:08:10.182Z,54.82
2019-05-16T04:08:57.595Z,54.00
2019-05-16T04:09:56.582Z,54.02
2019-05-16T04:10:56.574Z,54.41
2019-05-16T04:11:56.566Z,54.31
2019-05-16T04:12:56.567Z,56.05
2019-05-16T04:13:56.550Z,54.41
2019-05-16T04:14:56.528Z,54.82
2019-05-16T04:15:56.515Z,54.51
2019-05-16T04:16:56.516Z,54.92
2019-05-16T04:17:56.499Z,54.92
2019-05-16T04:18:56.496Z,56.56
2019-05-16T04:19:56.493Z,55.10
2019-05-16T04:20:56.474Z,55.33
2019-05-16T04:21:56.452Z,55.94
2019-05-16T04:22:56.438Z,55.92
2019-05-16T04:23:56.430Z,54.92
2019-05-16T04:24:56.416Z,56.67
2019-05-16T04:25:56.428Z,56.46
2019-05-16T04:26:56.407Z,56.43
2019-05-16T04:27:56.387Z,55.74
2019-05-16T04:28:56.388Z,56.15
2019-05-16T04:29:56.360Z,56.77
2019-05-16T04:30:56.350Z,56.67
2019-05-16T04:31:56.364Z,57.38
2019-05-16T04:32:56.346Z,56.64
2019-05-16T04:33:56.316Z,56.43
2019-05-16T04:34:56.329Z,56.95
2019-05-16T04:35:56.295Z,56.35
2019-05-16T04:36:56.285Z,57.25
2019-05-16T04:37:56.285Z,57.46
2019-05-16T04:38:56.290Z,58.07
2019-05-16T04:39:56.250Z,56.23
2019-05-16T04:40:56.238Z,56.02
2019-05-16T04:41:56.232Z,56.64
2019-05-16T04:42:56.218Z,57.97
2019-05-16T04:44:00.409Z,57.56
2019-05-16T04:44:57.220Z,57.69
2019-05-16T04:45:56.229Z,57.15
2019-05-16T04:46:56.171Z,57.56
2019-05-16T04:47:56.168Z,57.05
2019-05-16T04:48:56.155Z,56.43
2019-05-16T04:49:56.157Z,57.46
2019-05-16T04:50:56.138Z,57.46
2019-05-16T04:51:56.134Z,57.05
2019-05-16T04:52:56.131Z,57.66
2019-05-16T04:53:56.095Z,57.46
2019-05-16T04:54:56.085Z,57.74
2019-05-16T04:55:56.075Z,58.07
2019-05-16T04:56:56.079Z,56.51
2019-05-16T04:57:56.053Z,56.10
2019-05-16T04:58:56.054Z,57.35
2019-05-16T04:59:56.036Z,58.04
2019-05-16T05:00:56.018Z,57.64
2019-05-16T05:01:56.023Z,58.25
2019-05-16T05:02:56.030Z,56.20
2019-05-16T05:04:06.710Z,56.10
2019-05-16T05:04:56.994Z,56.41
2019-05-16T05:05:55.969Z,56.10
2019-05-16T05:06:56.115Z,56.00
2019-05-16T05:07:55.983Z,55.90
2019-05-16T05:08:59.093Z,56.51
2019-05-16T05:09:56.926Z,56.71
2019-05-16T05:10:55.936Z,56.61
2019-05-16T05:11:55.905Z,56.51
2019-05-16T05:12:55.892Z,57.12
2019-05-16T05:13:55.906Z,56.41
2019-05-16T05:14:55.869Z,57.02
2019-05-16T05:15:55.892Z,57.53
2019-05-16T05:16:55.861Z,57.94
2019-05-16T05:17:55.845Z,57.74
2019-05-16T05:18:55.826Z,56.82
2019-05-16T05:19:55.831Z,56.82
2019-05-16T05:20:55.808Z,56.30
2019-05-16T05:21:55.836Z,55.90
2019-05-16T05:22:55.824Z,58.25
2019-05-16T05:23:55.777Z,58.12
2019-05-16T05:24:55.758Z,58.22
2019-05-16T05:25:55.772Z,58.22
2019-05-16T05:26:55.753Z,57.51
2019-05-16T05:27:55.755Z,58.22
2019-05-16T05:28:55.714Z,58.81
2019-05-16T05:29:55.699Z,58.22
2019-05-16T05:30:55.695Z,56.38
2019-05-16T05:31:56.014Z,57.30
2019-05-16T05:32:55.691Z,57.71
2019-05-16T05:33:55.669Z,58.33
2019-05-16T05:34:55.702Z,58.02
2019-05-16T05:35:55.636Z,56.05
2019-05-16T05:36:55.651Z,57.71
2019-05-16T05:37:55.611Z,57.30
2019-05-16T05:39:07.893Z,57.99
2019-05-16T05:39:56.637Z,58.12
2019-05-16T05:40:55.587Z,59.42
2019-05-16T05:41:55.569Z,58.50
2019-05-16T05:42:55.594Z,57.28
2019-05-16T05:43:55.552Z,58.40
2019-05-16T05:44:55.563Z,59.22
2019-05-16T05:45:55.524Z,60.52
2019-05-16T05:46:55.555Z,59.30
2019-05-16T05:47:55.502Z,57.15
2019-05-16T05:48:55.538Z,55.92
2019-05-16T05:49:55.495Z,55.43
2019-05-16T05:50:55.497Z,56.33
2019-05-16T05:51:55.457Z,56.23
2019-05-16T05:52:55.459Z,56.23
2019-05-16T05:53:55.484Z,55.82
2019-05-16T05:54:55.434Z,56.33
2019-05-16T05:55:55.425Z,55.94
2019-05-16T05:56:55.415Z,56.74
2019-05-16T05:57:55.394Z,56.33
2019-05-16T05:58:58.131Z,55.92
2019-05-16T05:59:55.370Z,56.23
2019-05-16T06:00:55.398Z,55.92
2019-05-16T06:01:55.363Z,55.41
2019-05-16T06:02:55.336Z,55.10
2019-05-16T06:03:55.343Z,54.80
2019-05-16T06:04:55.364Z,55.89
2019-05-16T06:05:55.322Z,54.77
2019-05-16T06:06:55.331Z,55.69
2019-05-16T06:07:55.281Z,54.46
2019-05-16T06:08:55.268Z,55.79
2019-05-16T06:09:56.635Z,54.67
2019-05-16T06:10:55.253Z,54.36
2019-05-16T06:11:55.260Z,56.20
2019-05-16T06:12:55.225Z,54.46
2019-05-16T06:13:55.259Z,54.26
2019-05-16T06:14:55.220Z,54.77
2019-05-16T06:15:55.215Z,56.20
2019-05-16T06:16:55.204Z,54.57
2019-05-16T06:17:55.168Z,53.64
2019-05-16T06:18:56.818Z,53.44
2019-05-16T06:19:55.163Z,54.26
2019-05-16T06:20:55.147Z,54.97
2019-05-16T06:21:55.126Z,54.49
2019-05-16T06:22:55.117Z,56.40
2019-05-16T06:23:55.114Z,54.36
2019-05-16T06:24:55.111Z,53.44
2019-05-16T06:25:55.075Z,53.44
2019-05-16T06:26:55.069Z,52.55
2019-05-16T06:27:55.058Z,52.37
2019-05-16T06:28:55.048Z,54.10
2019-05-16T06:29:57.401Z,55.02
2019-05-16T06:30:55.037Z,53.90
2019-05-16T06:31:55.058Z,56.56
2019-05-16T06:32:55.019Z,56.56
2019-05-16T06:33:54.990Z,56.43
2019-05-16T06:34:54.989Z,54.18
2019-05-16T06:35:55.003Z,54.49
2019-05-16T06:36:54.955Z,55.30
2019-05-16T06:37:54.944Z,54.80
2019-05-16T06:38:54.946Z,53.98
2019-05-16T06:39:54.923Z,54.18
2019-05-16T06:40:54.913Z,54.28
2019-05-16T06:41:54.914Z,54.80
2019-05-16T06:42:54.890Z,55.92
2019-05-16T06:43:54.876Z,53.57
2019-05-16T06:44:54.875Z,54.18
2019-05-16T06:45:54.859Z,54.59
2019-05-16T06:47:10.085Z,54.80
2019-05-16T06:47:55.835Z,53.98
2019-05-16T06:48:54.822Z,54.49
2019-05-16T06:49:54.818Z,54.39
2019-05-16T06:50:54.802Z,54.49
2019-05-16T06:51:54.810Z,53.44
2019-05-16T06:52:54.814Z,53.64
2019-05-16T06:53:54.774Z,54.16
2019-05-16T06:54:54.759Z,54.05
2019-05-16T06:55:54.759Z,54.36
2019-05-16T06:56:54.732Z,53.92
2019-05-16T06:57:57.273Z,53.85
2019-05-16T06:58:54.771Z,53.21
2019-05-16T06:59:54.708Z,53.23
2019-05-16T07:00:54.703Z,53.75
2019-05-16T07:01:54.681Z,54.33
2019-05-16T07:02:54.674Z,53.72
2019-05-16T07:03:54.738Z,53.83
2019-05-16T07:04:54.656Z,54.33
2019-05-16T07:05:54.638Z,53.83
2019-05-16T07:06:59.404Z,53.72
2019-05-16T07:07:55.616Z,53.21
2019-05-16T07:08:54.647Z,53.11
2019-05-16T07:10:01.705Z,53.62
2019-05-16T07:10:55.585Z,54.85
2019-05-16T07:11:54.591Z,53.34
2019-05-16T07:12:54.560Z,53.64
2019-05-16T07:13:54.576Z,54.33
2019-05-16T07:14:54.537Z,54.33
2019-05-16T07:15:54.543Z,54.44
2019-05-16T07:16:54.513Z,53.92
2019-05-16T07:17:54.574Z,54.74
2019-05-16T07:18:54.493Z,54.23
2019-05-16T07:19:54.479Z,54.13
2019-05-16T07:20:54.465Z,53.62
2019-05-16T07:21:54.476Z,54.23
2019-05-16T07:22:54.452Z,54.33
2019-05-16T07:23:54.434Z,54.54
2019-05-16T07:24:54.451Z,53.72
2019-05-16T07:25:54.443Z,54.33
2019-05-16T07:26:54.444Z,54.23
2019-05-16T07:27:54.407Z,54.23
2019-05-16T07:28:54.382Z,54.11
2019-05-16T07:29:57.597Z,54.51
2019-05-16T07:30:54.418Z,55.23
2019-05-16T07:31:54.385Z,54.31
2019-05-16T07:32:54.336Z,55.02
2019-05-16T07:33:54.335Z,55.43
2019-05-16T07:34:54.351Z,53.19
2019-05-16T07:35:54.304Z,53.08
2019-05-16T07:36:54.297Z,53.62
2019-05-16T07:37:54.292Z,54.51
2019-05-16T07:38:54.304Z,53.80
2019-05-16T07:39:54.295Z,53.39
2019-05-16T07:40:54.314Z,52.47
2019-05-16T07:41:54.258Z,54.21
2019-05-16T07:42:54.257Z,53.49
2019-05-16T07:43:54.218Z,54.08
2019-05-16T07:44:54.254Z,52.37
2019-05-16T07:45:54.187Z,53.80
2019-05-16T07:46:54.178Z,54.41
2019-05-16T07:47:54.199Z,54.18
2019-05-16T07:48:54.189Z,54.59
2019-05-16T07:49:54.154Z,54.08
2019-05-16T07:50:54.152Z,54.31
2019-05-16T07:51:54.138Z,54.21
2019-05-16T07:52:54.117Z,56.02
2019-05-16T07:53:54.114Z,54.59
2019-05-16T07:54:54.101Z,54.69
2019-05-16T07:55:54.097Z,54.28
2019-05-16T07:56:59.463Z,53.75
2019-05-16T07:57:55.056Z,52.55
2019-05-16T07:58:54.085Z,53.24
2019-05-16T07:59:54.041Z,54.57
2019-05-16T08:01:02.829Z,54.33
2019-05-16T08:01:55.036Z,54.61
2019-05-16T08:02:54.008Z,54.31
2019-05-16T08:03:54.003Z,51.84
2019-05-16T08:04:53.977Z,53.06
2019-05-16T08:05:54.025Z,51.97
2019-05-16T08:06:53.998Z,52.45
2019-05-16T08:07:53.965Z,52.35
2019-05-16T08:08:53.955Z,52.12
2019-05-16T08:09:53.931Z,54.28
2019-05-16T08:10:53.914Z,51.72
2019-05-16T08:11:53.904Z,51.00
2019-05-16T08:12:53.893Z,51.10
2019-05-16T08:13:53.876Z,51.31
2019-05-16T08:14:53.888Z,52.50
2019-05-16T08:15:53.897Z,51.89
2019-05-16T08:16:53.846Z,51.16
2019-05-16T08:17:53.833Z,50.85
2019-05-16T08:18:53.873Z,50.55
2019-05-16T08:19:53.812Z,48.72
2019-05-16T08:20:53.827Z,50.45
2019-05-16T08:21:53.787Z,48.54
2019-05-16T08:22:53.775Z,49.45
2019-05-16T08:23:53.775Z,49.12
2019-05-16T08:24:53.772Z,49.22
2019-05-16T08:25:53.743Z,50.45
2019-05-16T08:26:53.757Z,49.25
2019-05-16T08:27:53.785Z,49.55
2019-05-16T08:28:53.716Z,48.46
2019-05-16T08:29:53.701Z,50.09
2019-05-16T08:30:53.693Z,51.59
2019-05-16T08:31:53.744Z,50.78
2019-05-16T08:32:53.679Z,49.02
2019-05-16T08:33:55.239Z,50.98
2019-05-16T08:34:53.695Z,50.14
2019-05-16T08:35:53.629Z,50.73
2019-05-16T08:36:53.671Z,51.42
2019-05-16T08:37:53.610Z,49.99
2019-05-16T08:38:53.625Z,49.99
2019-05-16T08:39:53.589Z,50.29
2019-05-16T08:41:14.327Z,47.75
2019-05-16T08:41:54.566Z,47.06
2019-05-16T08:42:53.597Z,49.81
2019-05-16T08:43:53.783Z,48.90
2019-05-16T08:44:53.553Z,50.70
2019-05-16T08:45:53.526Z,51.51
2019-05-16T08:47:54.494Z,49.13
2019-05-16T08:49:54.495Z,48.60
2019-05-16T08:50:55.294Z,48.71
2019-05-16T08:51:53.513Z,48.58
2019-05-16T08:52:53.438Z,48.18
2019-05-16T08:53:53.492Z,47.26
2019-05-16T08:54:53.516Z,46.04
2019-05-16T08:55:53.433Z,47.46
2019-05-16T08:56:53.413Z,46.98
2019-05-16T08:57:53.396Z,47.28
2019-05-16T08:58:54.957Z,48.19
2019-05-16T08:59:53.390Z,48.78
2019-05-16T09:00:56.428Z,48.18
2019-05-16T09:01:58.146Z,47.49
2019-05-16T09:02:54.328Z,47.10
2019-05-16T09:03:53.353Z,48.95
2019-05-16T09:04:53.798Z,48.34
2019-05-16T09:05:53.803Z,48.87
2019-05-16T09:06:53.309Z,49.08
2019-05-16T09:08:00.490Z,49.40
2019-05-16T09:08:58.294Z,51.03
2019-05-16T09:09:59.811Z,49.91
2019-05-16T09:10:31.814Z,48.40
2019-05-16T09:10:41.639Z,50.17
2019-05-16T09:11:01.643Z,50.90
2019-05-16T09:11:57.238Z,51.01
2019-05-16T09:12:53.277Z,50.70
2019-05-16T09:13:53.211Z,49.38
2019-05-16T09:14:53.202Z,49.79
2019-05-16T09:15:53.201Z,49.79
2019-05-16T09:16:53.180Z,50.22
2019-05-16T09:17:53.171Z,50.50
2019-05-16T09:18:53.230Z,49.89
2019-05-16T09:19:53.146Z,48.69
2019-05-16T09:20:53.146Z,48.90
2019-05-16T09:21:53.182Z,50.73
2019-05-16T09:22:53.135Z,49.79
2019-05-16T09:23:53.132Z,51.01
2019-05-16T09:24:53.091Z,50.29
2019-05-16T09:25:53.141Z,51.29
2019-05-16T09:26:53.070Z,49.66
2019-05-16T09:27:53.082Z,49.03
2019-05-16T09:28:53.093Z,49.33
2019-05-16T09:29:53.056Z,49.33
2019-05-16T09:30:53.030Z,48.72
2019-05-16T09:32:11.486Z,50.53
2019-05-16T09:32:54.023Z,50.33
2019-05-16T09:33:53.005Z,48.32
2019-05-16T09:34:52.976Z,48.32
2019-05-16T09:35:53.007Z,50.04
2019-05-16T09:36:56.630Z,50.15
2019-05-16T09:37:53.939Z,49.13
2019-05-16T09:38:52.962Z,48.93
2019-05-16T09:39:52.935Z,49.23
2019-05-16T09:40:52.932Z,48.63
2019-05-16T09:41:57.668Z,49.13
2019-05-16T09:42:53.889Z,48.93
2019-05-16T09:43:52.879Z,48.72
2019-05-16T09:44:52.919Z,48.60
2019-05-16T09:45:57.556Z,49.21
2019-05-16T09:46:56.703Z,50.40
2019-05-16T09:47:52.841Z,50.89
2019-05-16T09:49:18.933Z,47.52
2019-05-16T09:49:53.847Z,47.82
2019-05-16T09:50:52.796Z,46.79
2019-05-16T09:51:52.810Z,47.09
2019-05-16T09:52:52.775Z,46.79
2019-05-16T09:53:52.775Z,47.22
2019-05-16T09:54:52.761Z,45.17
2019-05-16T09:55:52.799Z,47.11
2019-05-16T09:56:52.730Z,47.11
2019-05-16T09:57:54.936Z,48.13
2019-05-16T09:58:52.755Z,48.11
2019-05-16T09:59:52.711Z,47.17
2019-05-16T10:00:52.706Z,46.67
2019-05-16T10:01:52.686Z,47.88
2019-05-16T10:02:52.720Z,47.38
2019-05-16T10:03:52.656Z,46.87
2019-05-16T10:04:52.655Z,46.84
2019-05-16T10:05:52.647Z,46.83
2019-05-16T10:06:52.620Z,46.54
2019-05-16T10:07:52.614Z,46.92
2019-05-16T10:08:52.620Z,46.95
2019-05-16T10:09:52.593Z,48.03
2019-05-16T10:10:52.589Z,47.83
2019-05-16T10:12:06.890Z,46.62
2019-05-16T10:12:53.576Z,45.63
2019-05-16T10:13:52.541Z,48.79
2019-05-16T10:14:52.545Z,50.69
2019-05-16T10:15:52.554Z,48.36
2019-05-16T10:16:52.532Z,47.96
2019-05-16T10:17:52.506Z,48.06
2019-05-16T10:18:52.506Z,47.17
2019-05-16T10:19:52.476Z,47.78
2019-05-16T10:20:52.463Z,51.65
2019-05-16T10:21:52.461Z,48.71
2019-05-16T10:22:52.528Z,49.55
2019-05-16T10:23:52.455Z,49.65
2019-05-16T10:24:52.419Z,49.11
2019-05-16T10:25:52.414Z,48.61
2019-05-16T10:26:53.914Z,47.82
2019-05-16T10:27:52.390Z,48.63
2019-05-16T10:28:52.427Z,48.82
2019-05-16T10:29:52.380Z,48.13
2019-05-16T10:30:52.363Z,49.02
2019-05-16T10:31:53.408Z,48.39
2019-05-16T10:32:52.335Z,50.23
2019-05-16T10:33:52.327Z,48.21
2019-05-16T10:34:52.308Z,48.31
2019-05-16T10:35:52.325Z,48.41
2019-05-16T10:36:52.292Z,46.89
2019-05-16T10:37:52.285Z,46.99
2019-05-16T10:38:52.302Z,48.11
2019-05-16T10:39:52.257Z,48.59
2019-05-16T10:40:52.252Z,47.98
2019-05-16T10:41:52.317Z,47.70
2019-05-16T10:42:52.234Z,47.50
2019-05-16T10:43:52.210Z,46.28
2019-05-16T10:44:52.216Z,47.82
2019-05-16T10:45:53.738Z,46.91
2019-05-16T10:46:52.199Z,47.92
2019-05-16T10:47:52.165Z,48.03
2019-05-16T10:48:52.157Z,48.15
2019-05-16T10:49:52.199Z,48.46
2019-05-16T10:50:52.247Z,48.86
2019-05-16T10:51:52.121Z,48.96
2019-05-16T10:53:20.299Z,48.25
2019-05-16T10:54:05.625Z,48.96
2019-05-16T10:54:58.309Z,48.58
2019-05-16T10:55:53.166Z,48.88
2019-05-16T10:56:52.177Z,49.19
2019-05-16T10:57:52.151Z,48.78
2019-05-16T10:59:25.964Z,48.60
2019-05-16T11:00:06.512Z,48.19
2019-05-16T11:01:22.142Z,49.62
2019-05-16T11:01:53.069Z,50.63
2019-05-16T11:02:59.647Z,48.71
2019-05-16T11:03:52.063Z,48.50
2019-05-16T11:05:00.031Z,48.10
2019-05-16T11:06:03.088Z,48.32
2019-05-16T11:06:53.010Z,48.02
2019-05-16T11:07:53.344Z,48.63
2019-05-16T11:08:51.935Z,48.34
2019-05-16T11:09:58.278Z,49.05
2019-05-16T11:10:52.955Z,48.77
2019-05-16T11:11:51.965Z,49.08
2019-05-16T11:12:55.616Z,50.20
2019-05-16T11:13:52.904Z,49.18
2019-05-16T11:14:51.870Z,49.18
2019-05-16T11:15:51.907Z,49.38
2019-05-16T11:16:51.903Z,48.97
2019-05-16T11:17:51.882Z,49.69
2019-05-16T11:18:51.824Z,48.67
2019-05-16T11:19:51.832Z,50.42
2019-05-16T11:20:51.898Z,51.54
2019-05-16T11:21:51.855Z,50.60
2019-05-16T11:22:51.781Z,49.08
2019-05-16T11:23:51.777Z,48.36
2019-05-16T11:24:51.761Z,49.18
2019-05-16T11:25:55.066Z,49.99
2019-05-16T11:26:51.747Z,49.48
2019-05-16T11:27:51.726Z,48.27
2019-05-16T11:28:51.760Z,50.58
2019-05-16T11:29:51.716Z,48.85
2019-05-16T11:30:51.813Z,48.04
2019-05-16T11:31:51.698Z,48.34
2019-05-16T11:32:51.673Z,48.44
2019-05-16T11:33:51.656Z,48.52
2019-05-16T11:34:51.718Z,48.72
2019-05-16T11:35:51.652Z,48.11
2019-05-16T11:36:51.685Z,48.65
2019-05-16T11:37:51.613Z,47.94
2019-05-16T11:38:51.661Z,47.13
2019-05-16T11:39:51.614Z,47.02
2019-05-16T11:40:51.634Z,47.22
2019-05-16T11:41:51.581Z,47.43
2019-05-16T11:43:05.667Z,47.13
2019-05-16T11:43:52.609Z,48.85
2019-05-16T11:44:51.541Z,49.74
2019-05-16T11:45:51.534Z,49.13
2019-05-16T11:46:51.665Z,47.49
2019-05-16T11:47:51.508Z,48.30
2019-05-16T11:48:51.493Z,46.83
2019-05-16T11:49:51.512Z,48.05
2019-05-16T11:50:51.471Z,47.02
2019-05-16T11:51:51.461Z,47.11
2019-05-16T11:52:51.452Z,46.30
2019-05-16T11:53:51.435Z,46.10
2019-05-16T11:54:51.431Z,44.90
2019-05-16T11:55:56.432Z,47.95
2019-05-16T11:56:52.401Z,47.22
2019-05-16T11:57:51.406Z,46.91
2019-05-16T11:58:51.385Z,49.22
2019-05-16T11:59:51.369Z,48.11
2019-05-16T12:00:51.378Z,45.47
2019-05-16T12:01:51.354Z,46.08
2019-05-16T12:02:51.387Z,47.90
2019-05-16T12:03:51.341Z,48.41
2019-05-16T12:04:51.326Z,47.19
2019-05-16T12:05:51.302Z,48.21
2019-05-16T12:06:51.332Z,49.65
2019-05-16T12:07:51.330Z,47.92
2019-05-16T12:08:51.272Z,48.33
2019-05-16T12:09:55.423Z,49.34
2019-05-16T12:10:51.247Z,48.03
2019-05-16T12:11:59.664Z,47.11
2019-05-16T12:12:52.229Z,48.35
2019-05-16T12:13:51.225Z,48.13
2019-05-16T12:14:51.247Z,49.75
2019-05-16T12:15:51.194Z,47.95
2019-05-16T12:16:51.181Z,48.46
2019-05-16T12:18:00.891Z,49.90
2019-05-16T12:18:52.162Z,47.67
2019-05-16T12:19:52.931Z,48.15
2019-05-16T12:20:51.142Z,48.25
2019-05-16T12:21:51.124Z,48.66
2019-05-16T12:22:51.140Z,48.55
2019-05-16T12:23:51.142Z,46.83
2019-05-16T12:24:51.096Z,48.15
2019-05-16T12:25:51.134Z,48.23
2019-05-16T12:26:51.072Z,47.54
2019-05-16T12:27:51.063Z,47.95
2019-05-16T12:28:51.094Z,48.35
2019-05-16T12:29:55.323Z,48.83
2019-05-16T12:30:52.034Z,48.43
2019-05-16T12:31:57.479Z,49.02
2019-05-16T12:32:52.007Z,50.26
2019-05-16T12:33:50.993Z,50.54
2019-05-16T12:34:51.005Z,49.02
2019-05-16T12:35:50.970Z,49.19
2019-05-16T12:36:50.961Z,50.51
2019-05-16T12:37:51.989Z,50.38
2019-05-16T12:38:50.963Z,48.85
2019-05-16T12:39:50.935Z,50.06
2019-05-16T12:40:50.959Z,50.67
2019-05-16T12:41:51.028Z,51.40
2019-05-16T12:42:54.191Z,51.70
2019-05-16T12:43:53.632Z,52.81
2019-05-16T12:44:50.871Z,51.68
2019-05-16T12:45:50.919Z,52.28
2019-05-16T12:46:50.857Z,49.96
2019-05-16T12:47:50.848Z,50.16
2019-05-16T12:48:50.896Z,47.83
2019-05-16T12:49:50.866Z,49.15
2019-05-16T12:50:50.810Z,47.13
2019-05-16T12:51:50.822Z,47.96
2019-05-16T12:52:50.833Z,49.88